createdAt,value
2018-08-28T00:00:29.969Z,63.38
2018-08-28T00:02:59.053Z,63.39
2018-08-28T00:05:28.051Z,63.34
2018-08-28T00:07:57.080Z,63.31
2018-08-28T00:10:26.396Z,63.25
2018-08-28T00:12:55.458Z,62.95
2018-08-28T00:15:24.468Z,63.07
2018-08-28T00:17:55.180Z,63.09
2018-08-28T00:20:24.265Z,63.08
2018-08-28T00:22:53.300Z,63.42
2018-08-28T00:25:22.308Z,63.33
2018-08-28T00:27:51.462Z,63.51
2018-08-28T00:30:20.668Z,63.65
2018-08-28T00:32:49.671Z,63.75
2018-08-28T00:35:18.781Z,63.59
2018-08-28T00:37:47.850Z,63.68
2018-08-28T00:40:16.932Z,63.84
2018-08-28T00:42:45.964Z,63.62
2018-08-28T00:45:15.023Z,63.55
2018-08-28T00:47:44.012Z,63.58
2018-08-28T00:50:13.029Z,63.48
2018-08-28T00:52:42.103Z,63.40
2018-08-28T00:55:11.205Z,63.42
2018-08-28T00:57:40.295Z,63.31
2018-08-28T01:00:09.316Z,63.28
2018-08-28T01:02:38.411Z,63.36
2018-08-28T01:05:07.557Z,63.41
2018-08-28T01:07:36.550Z,63.67
2018-08-28T01:10:05.698Z,63.42
2018-08-28T01:12:34.724Z,63.24
2018-08-28T01:15:03.779Z,63.20
2018-08-28T01:17:32.770Z,63.26
2018-08-28T01:20:01.761Z,63.28
2018-08-28T01:22:30.836Z,63.66
2018-08-28T01:24:59.863Z,63.78
2018-08-28T01:27:28.939Z,63.91
2018-08-28T01:29:58.109Z,64.00
2018-08-28T01:32:27.140Z,64.06
2018-08-28T01:34:56.145Z,63.89
2018-08-28T01:37:25.211Z,63.91
2018-08-28T01:39:54.200Z,64.12
2018-08-28T01:42:25.018Z,64.00
2018-08-28T01:44:54.172Z,64.12
2018-08-28T01:47:23.476Z,64.63
2018-08-28T01:49:52.587Z,64.77
2018-08-28T01:52:22.029Z,64.52
2018-08-28T01:54:51.077Z,64.72
2018-08-28T01:57:20.910Z,64.54
2018-08-28T01:59:49.960Z,64.82
2018-08-28T02:02:18.992Z,64.98
2018-08-28T02:04:49.961Z,64.76
2018-08-28T02:07:19.085Z,65.02
2018-08-28T02:09:48.119Z,64.86
2018-08-28T02:12:18.090Z,64.77
2018-08-28T02:14:47.071Z,64.72
2018-08-28T02:17:16.062Z,64.72
2018-08-28T02:19:45.201Z,64.68
2018-08-28T02:22:14.185Z,64.69
2018-08-28T02:24:43.196Z,64.70
2018-08-28T02:27:12.239Z,64.65
2018-08-28T02:29:41.256Z,65.04
2018-08-28T02:32:10.281Z,65.00
2018-08-28T02:34:39.404Z,65.13
2018-08-28T02:37:08.481Z,65.15
2018-08-28T02:39:37.489Z,65.33
2018-08-28T02:42:08.444Z,65.47
2018-08-28T02:44:37.445Z,65.69
2018-08-28T02:47:07.054Z,65.32
2018-08-28T02:49:36.077Z,65.44
2018-08-28T02:52:05.101Z,65.44
2018-08-28T02:54:34.055Z,65.61
2018-08-28T02:57:03.076Z,65.75
2018-08-28T02:59:32.109Z,65.62
2018-08-28T03:02:01.115Z,65.68
2018-08-28T03:04:30.129Z,65.73
2018-08-28T03:06:59.137Z,66.05
2018-08-28T03:09:28.193Z,65.68
2018-08-28T03:11:57.240Z,65.92
2018-08-28T03:14:26.419Z,65.89
2018-08-28T03:16:55.435Z,66.00
2018-08-28T03:19:24.583Z,66.18
2018-08-28T03:21:53.643Z,66.20
2018-08-28T03:24:22.625Z,66.26
2018-08-28T03:26:51.701Z,66.11
2018-08-28T03:29:20.699Z,65.93
2018-08-28T03:31:49.821Z,66.24
2018-08-28T03:34:18.852Z,66.53
2018-08-28T03:36:47.908Z,66.71
2018-08-28T03:39:17.058Z,66.61
2018-08-28T03:41:46.084Z,66.61
2018-08-28T03:44:15.082Z,66.61
2018-08-28T03:46:44.052Z,66.49
2018-08-28T03:49:14.049Z,66.25
2018-08-28T03:51:43.089Z,66.43
2018-08-28T03:54:12.108Z,66.43
2018-08-28T03:56:41.128Z,66.29
2018-08-28T03:59:10.190Z,66.31
2018-08-28T04:01:39.272Z,66.49
2018-08-28T04:04:08.270Z,66.13
2018-08-28T04:06:37.428Z,66.18
2018-08-28T04:09:08.045Z,65.93
2018-08-28T04:11:37.046Z,66.21
2018-08-28T04:14:06.045Z,66.34
2018-08-28T04:16:35.051Z,66.06
2018-08-28T04:21:40.681Z,65.98
2018-08-28T04:24:09.670Z,66.40
2018-08-28T04:26:38.658Z,66.33
2018-08-28T04:29:07.658Z,66.09
2018-08-28T04:31:36.679Z,66.13
2018-08-28T04:34:05.687Z,66.59
2018-08-28T04:36:34.742Z,66.36
2018-08-28T04:39:04.118Z,66.38
2018-08-28T04:41:33.198Z,66.32
2018-08-28T04:44:02.239Z,66.30
2018-08-28T04:46:31.529Z,66.31
2018-08-28T04:49:00.667Z,66.46
2018-08-28T04:51:29.671Z,66.75
2018-08-28T04:53:58.695Z,66.22
2018-08-28T04:56:27.742Z,66.40
2018-08-28T04:58:56.859Z,66.42
2018-08-28T05:01:26.059Z,66.46
2018-08-28T05:03:56.415Z,66.61
2018-08-28T05:06:25.385Z,66.40
2018-08-28T05:08:54.360Z,66.45
2018-08-28T05:11:23.425Z,66.38
2018-08-28T05:13:52.440Z,66.35
2018-08-28T05:16:21.462Z,66.05
2018-08-28T05:18:50.846Z,66.18
2018-08-28T05:21:19.864Z,66.34
2018-08-28T05:23:48.858Z,66.29
2018-08-28T05:26:17.886Z,66.24
2018-08-28T05:28:47.898Z,66.17
2018-08-28T05:31:17.162Z,66.43
2018-08-28T05:33:46.188Z,66.13
2018-08-28T05:36:15.183Z,66.39
2018-08-28T05:38:44.212Z,66.53
2018-08-28T05:41:13.227Z,66.31
2018-08-28T05:43:42.239Z,66.32
2018-08-28T05:46:11.375Z,66.19
2018-08-28T05:48:40.380Z,66.03
2018-08-28T05:51:09.665Z,66.24
2018-08-28T05:53:38.686Z,65.79
2018-08-28T05:56:08.644Z,66.08
2018-08-28T05:58:37.643Z,65.84
2018-08-28T06:01:06.708Z,65.58
2018-08-28T06:03:35.801Z,65.53
2018-08-28T06:06:04.735Z,65.42
2018-08-28T06:08:33.824Z,65.06
2018-08-28T06:11:02.857Z,65.45
2018-08-28T06:13:32.692Z,65.23
2018-08-28T06:16:01.793Z,65.05
2018-08-28T06:18:31.042Z,64.89
2018-08-28T06:21:00.469Z,64.99
2018-08-28T06:23:29.593Z,64.76
2018-08-28T06:25:59.436Z,64.61
2018-08-28T06:28:28.534Z,64.50
2018-08-28T06:30:57.591Z,64.41
2018-08-28T06:33:27.212Z,64.55
2018-08-28T06:35:56.829Z,64.33
2018-08-28T06:38:25.869Z,64.83
2018-08-28T06:40:54.908Z,64.90
2018-08-28T06:43:23.937Z,65.00
2018-08-28T06:45:52.995Z,65.13
2018-08-28T06:48:23.143Z,64.79
2018-08-28T06:50:52.621Z,64.73
2018-08-28T06:53:21.748Z,64.48
2018-08-28T06:55:50.888Z,64.44
2018-08-28T06:58:20.032Z,64.56
2018-08-28T07:00:49.033Z,64.53
2018-08-28T07:03:18.348Z,63.98
2018-08-28T07:05:47.429Z,63.61
2018-08-28T07:08:16.619Z,63.85
2018-08-28T07:10:45.697Z,63.67
2018-08-28T07:13:14.632Z,63.65
2018-08-28T07:15:43.653Z,63.70
2018-08-28T07:18:12.759Z,63.46
2018-08-28T07:20:41.921Z,63.58
2018-08-28T07:23:11.029Z,63.23
2018-08-28T07:25:40.176Z,63.58
2018-08-28T07:28:10.473Z,63.04
2018-08-28T07:30:40.508Z,63.64
2018-08-28T07:33:09.563Z,62.92
2018-08-28T07:35:42.712Z,63.15
2018-08-28T07:38:11.797Z,63.04
2018-08-28T07:40:41.879Z,62.84
2018-08-28T07:43:10.916Z,62.77
2018-08-28T07:45:40.500Z,62.95
2018-08-28T07:48:11.170Z,62.62
2018-08-28T07:50:57.927Z,62.48
2018-08-28T07:53:27.064Z,62.55
2018-08-28T07:55:56.249Z,62.75
2018-08-28T07:58:25.320Z,62.68
2018-08-28T08:00:54.527Z,62.48
2018-08-28T08:03:24.199Z,62.27
2018-08-28T08:05:55.425Z,62.18
2018-08-28T08:08:24.597Z,62.07
2018-08-28T08:10:54.967Z,61.96
2018-08-28T08:13:24.194Z,61.85
2018-08-28T08:15:53.638Z,61.76
2018-08-28T08:18:25.039Z,61.57
2018-08-28T08:20:54.398Z,61.64
2018-08-28T08:23:23.598Z,61.12
2018-08-28T08:25:52.679Z,60.76
2018-08-28T08:28:28.219Z,60.68
2018-08-28T08:30:57.394Z,60.60
2018-08-28T08:33:26.436Z,60.45
2018-08-28T08:35:55.577Z,60.21
2018-08-28T08:38:24.727Z,59.93
2018-08-28T08:40:53.940Z,59.82
2018-08-28T08:43:23.011Z,60.05
2018-08-28T08:45:52.210Z,60.00
2018-08-28T08:48:34.936Z,59.58
2018-08-28T08:51:07.022Z,59.61
2018-08-28T08:53:36.078Z,59.77
2018-08-28T08:56:07.087Z,59.52
2018-08-28T08:58:37.075Z,59.27
2018-08-28T09:04:01.126Z,59.28
2018-08-28T09:06:30.226Z,58.80
2018-08-28T09:08:59.368Z,58.69
2018-08-28T09:11:28.490Z,58.88
2018-08-28T09:13:57.585Z,58.55
2018-08-28T09:16:26.665Z,58.53
2018-08-28T09:18:55.824Z,58.65
2018-08-28T09:21:40.508Z,58.33
2018-08-28T09:24:09.811Z,58.29
2018-08-28T09:26:39.158Z,58.21
2018-08-28T09:29:08.271Z,58.35
2018-08-28T09:31:37.426Z,58.40
2018-08-28T09:34:06.506Z,58.49
2018-08-28T09:36:37.229Z,58.52
2018-08-28T09:39:26.550Z,58.64
2018-08-28T09:41:55.671Z,58.57
2018-08-28T09:44:25.577Z,58.48
2018-08-28T09:46:54.795Z,58.45
2018-08-28T09:49:24.354Z,58.12
2018-08-28T09:51:53.590Z,57.93
2018-08-28T09:54:22.793Z,57.74
2018-08-28T09:56:51.966Z,57.58
2018-08-28T09:59:21.123Z,56.96
2018-08-28T10:01:50.182Z,56.95
2018-08-28T10:04:20.683Z,56.60
2018-08-28T10:06:49.728Z,56.63
2018-08-28T10:09:20.240Z,56.32
2018-08-28T10:11:50.476Z,56.07
2018-08-28T10:14:19.560Z,55.94
2018-08-28T10:16:48.655Z,55.96
2018-08-28T10:19:17.803Z,55.95
2018-08-28T10:21:46.905Z,55.69
2018-08-28T10:24:16.022Z,55.45
2018-08-28T10:26:49.061Z,55.36
2018-08-28T10:29:19.544Z,54.88
2018-08-28T10:31:48.780Z,54.95
2018-08-28T10:34:18.064Z,54.85
2018-08-28T10:36:47.469Z,54.71
2018-08-28T10:39:17.977Z,54.74
2018-08-28T10:41:47.100Z,54.76
2018-08-28T10:44:16.716Z,54.65
2018-08-28T10:46:46.041Z,54.66
2018-08-28T10:49:15.863Z,55.02
2018-08-28T10:51:45.061Z,54.90
2018-08-28T10:54:14.281Z,54.83
2018-08-28T10:56:43.316Z,54.82
2018-08-28T10:59:12.583Z,54.83
2018-08-28T11:01:42.027Z,54.81
2018-08-28T11:04:11.142Z,54.18
2018-08-28T11:06:50.698Z,54.35
2018-08-28T11:09:21.706Z,54.60
2018-08-28T11:11:51.910Z,54.52
2018-08-28T11:14:20.912Z,54.12
2018-08-28T11:16:50.121Z,54.29
2018-08-28T11:19:19.233Z,54.18
2018-08-28T11:21:48.381Z,54.15
2018-08-28T11:24:17.406Z,54.21
2018-08-28T11:26:46.404Z,54.12
2018-08-28T11:29:15.456Z,54.13
2018-08-28T11:31:45.195Z,54.00
2018-08-28T11:34:14.228Z,53.92
2018-08-28T11:36:43.370Z,53.83
2018-08-28T11:39:14.173Z,53.64
2018-08-28T11:41:43.172Z,53.89
2018-08-28T11:44:13.041Z,53.94
2018-08-28T11:46:43.296Z,54.06
2018-08-28T11:49:13.220Z,54.16
2018-08-28T11:51:42.471Z,54.18
2018-08-28T11:54:11.577Z,54.33
2018-08-28T11:56:40.633Z,54.68
2018-08-28T11:59:12.169Z,54.73
2018-08-28T12:01:41.357Z,54.71
2018-08-28T12:04:12.060Z,54.95
2018-08-28T12:06:41.418Z,54.88
2018-08-28T12:09:12.229Z,55.11
2018-08-28T12:11:42.494Z,55.18
2018-08-28T12:14:11.724Z,55.11
2018-08-28T12:16:41.006Z,55.15
2018-08-28T12:19:10.149Z,55.06
2018-08-28T12:21:39.511Z,55.18
2018-08-28T12:24:08.642Z,55.03
2018-08-28T12:26:38.231Z,54.97
2018-08-28T12:29:07.470Z,54.97
2018-08-28T12:31:36.596Z,54.97
2018-08-28T12:34:05.833Z,55.08
2018-08-28T12:36:35.127Z,54.92
2018-08-28T12:39:05.082Z,54.58
2018-08-28T12:41:34.328Z,54.45
2018-08-28T12:44:03.531Z,54.20
2018-08-28T12:46:32.860Z,53.72
2018-08-28T12:49:01.976Z,53.31
2018-08-28T12:54:18.706Z,53.48
2018-08-28T12:56:48.703Z,53.79
2018-08-28T12:59:17.753Z,53.62
2018-08-28T13:01:49.055Z,53.32
2018-08-28T13:04:18.287Z,53.27
2018-08-28T13:06:47.486Z,53.11
2018-08-28T13:09:16.565Z,52.59
2018-08-28T13:11:45.620Z,52.61
2018-08-28T13:14:14.755Z,52.81
2018-08-28T13:16:44.321Z,52.56
2018-08-28T13:19:13.512Z,52.41
2018-08-28T13:21:42.622Z,52.42
2018-08-28T13:24:11.885Z,52.46
2018-08-28T13:26:40.923Z,52.56
2018-08-28T13:29:10.089Z,52.42
2018-08-28T13:31:39.293Z,52.32
2018-08-28T13:34:08.627Z,52.31
2018-08-28T13:36:37.964Z,52.56
2018-08-28T13:39:07.475Z,52.90
2018-08-28T13:41:36.856Z,53.06
2018-08-28T13:44:05.935Z,53.15
2018-08-28T13:46:35.111Z,53.34
2018-08-28T13:49:04.648Z,53.27
2018-08-28T13:51:33.886Z,52.78
2018-08-28T13:54:03.114Z,52.46
2018-08-28T13:56:32.281Z,52.08
2018-08-28T13:59:01.814Z,52.01
2018-08-28T14:01:30.974Z,51.88
2018-08-28T14:04:00.192Z,51.95
2018-08-28T14:06:29.255Z,51.92
2018-08-28T14:08:58.396Z,51.94
2018-08-28T14:11:27.542Z,51.88
2018-08-28T14:13:56.634Z,51.68
2018-08-28T14:16:25.749Z,51.93
2018-08-28T14:18:54.794Z,51.94
2018-08-28T14:21:24.081Z,51.85
2018-08-28T14:23:53.336Z,52.02
2018-08-28T14:26:22.737Z,51.86
2018-08-28T14:28:52.268Z,51.82
2018-08-28T14:31:21.437Z,52.05
2018-08-28T14:33:50.645Z,52.15
2018-08-28T14:39:09.526Z,52.00
2018-08-28T14:41:39.048Z,52.08
2018-08-28T14:44:08.404Z,51.96
2018-08-28T14:46:38.440Z,51.93
2018-08-28T14:49:08.179Z,51.87
2018-08-28T14:51:37.371Z,51.80
2018-08-28T14:54:06.496Z,51.69
2018-08-28T14:56:35.599Z,51.51
2018-08-28T14:59:05.740Z,51.64
2018-08-28T15:01:35.015Z,51.95
2018-08-28T15:04:04.104Z,52.12
2018-08-28T15:06:33.207Z,52.12
2018-08-28T15:09:02.758Z,52.33
2018-08-28T15:11:31.894Z,52.67
2018-08-28T15:14:01.208Z,52.33
2018-08-28T15:16:30.444Z,52.00
2018-08-28T15:18:59.449Z,51.68
2018-08-28T15:21:28.683Z,51.34
2018-08-28T15:23:57.797Z,51.28
2018-08-28T15:26:27.305Z,51.02
2018-08-28T15:28:56.497Z,51.00
2018-08-28T15:31:30.902Z,50.64
2018-08-28T15:34:00.645Z,50.39
2018-08-28T15:36:29.917Z,50.23
2018-08-28T15:39:00.318Z,50.08
2018-08-28T15:41:29.520Z,50.23
2018-08-28T15:43:58.713Z,50.19
2018-08-28T15:46:27.948Z,50.23
2018-08-28T15:48:57.195Z,50.17
2018-08-28T15:51:26.447Z,50.09
2018-08-28T15:53:56.425Z,50.01
2018-08-28T15:56:25.545Z,49.55
2018-08-28T15:58:54.845Z,49.42
2018-08-28T16:01:24.426Z,48.92
2018-08-28T16:03:53.804Z,48.93
2018-08-28T16:06:23.398Z,49.15
2018-08-28T16:08:56.877Z,49.31
2018-08-28T16:11:26.616Z,49.40
2018-08-28T16:18:29.309Z,49.28
2018-08-28T16:20:59.940Z,49.44
2018-08-28T16:23:30.997Z,49.41
2018-08-28T16:26:00.523Z,49.55
2018-08-28T16:28:30.914Z,49.35
2018-08-28T16:31:00.895Z,49.34
2018-08-28T16:33:30.253Z,49.41
2018-08-28T16:35:59.534Z,49.47
2018-08-28T16:38:29.530Z,49.17
2018-08-28T16:40:58.923Z,49.19
2018-08-28T16:43:28.226Z,49.10
2018-08-28T16:45:57.436Z,48.83
2018-08-28T16:48:29.538Z,49.43
2018-08-28T16:50:58.997Z,49.49
2018-08-28T16:53:30.358Z,49.01
2018-08-28T16:55:59.651Z,48.87
2018-08-28T16:58:29.049Z,49.03
2018-08-28T17:00:59.360Z,49.33
2018-08-28T17:03:28.602Z,49.03
2018-08-28T17:05:57.919Z,49.06
2018-08-28T17:08:27.376Z,49.40
2018-08-28T17:10:56.678Z,49.64
2018-08-28T17:13:26.218Z,49.62
2018-08-28T17:15:55.574Z,49.80
2018-08-28T17:18:25.019Z,50.00
2018-08-28T17:20:54.431Z,49.88
2018-08-28T17:23:23.685Z,50.09
2018-08-28T17:25:53.131Z,50.25
2018-08-28T17:28:22.245Z,50.39
2018-08-28T17:30:51.864Z,50.66
2018-08-28T17:33:21.273Z,50.67
2018-08-28T17:35:50.386Z,50.47
2018-08-28T17:38:19.470Z,50.63
2018-08-28T17:40:48.578Z,50.48
2018-08-28T17:43:17.701Z,50.71
2018-08-28T17:45:46.816Z,50.95
2018-08-28T17:48:15.828Z,50.98
2018-08-28T17:50:45.949Z,51.00
2018-08-28T17:53:15.507Z,51.14
2018-08-28T17:55:44.564Z,50.92
2018-08-28T17:58:13.668Z,50.70
2018-08-28T18:00:42.895Z,50.71
2018-08-28T18:03:11.898Z,50.64
2018-08-28T18:05:40.992Z,50.86
2018-08-28T18:08:10.563Z,50.79
2018-08-28T18:10:39.670Z,50.85
2018-08-28T18:13:09.495Z,51.19
2018-08-28T18:15:38.863Z,51.14
2018-08-28T18:18:08.010Z,51.03
2018-08-28T18:20:37.212Z,51.21
2018-08-28T18:23:06.303Z,51.36
2018-08-28T18:25:35.359Z,51.59
2018-08-28T18:28:04.445Z,51.64
2018-08-28T18:30:33.540Z,51.79
2018-08-28T18:33:02.652Z,51.92
2018-08-28T18:35:31.908Z,52.17
2018-08-28T18:38:01.185Z,52.17
2018-08-28T18:40:30.406Z,52.22
2018-08-28T18:42:59.460Z,52.32
2018-08-28T18:45:28.497Z,52.39
2018-08-28T18:47:57.693Z,52.44
2018-08-28T18:50:28.962Z,52.55
2018-08-28T18:53:02.570Z,52.67
2018-08-28T18:55:31.632Z,52.82
2018-08-28T18:58:00.760Z,53.08
2018-08-28T19:00:29.817Z,53.44
2018-08-28T19:02:58.932Z,53.77
2018-08-28T19:05:27.913Z,53.98
2018-08-28T19:07:57.236Z,54.12
2018-08-28T19:10:27.387Z,54.24
2018-08-28T19:12:56.558Z,54.24
2018-08-28T19:15:25.657Z,54.38
2018-08-28T19:17:54.773Z,54.45
2018-08-28T19:20:23.881Z,54.83
2018-08-28T19:22:53.044Z,55.33
2018-08-28T19:25:23.647Z,55.51
2018-08-28T19:27:52.871Z,55.81
2018-08-28T19:30:22.063Z,55.87
2018-08-28T19:32:53.389Z,56.19
2018-08-28T19:35:22.502Z,56.26
2018-08-28T19:37:51.724Z,56.41
2018-08-28T19:40:21.290Z,56.53
2018-08-28T19:42:51.069Z,56.87
2018-08-28T19:45:20.159Z,57.27
2018-08-28T19:47:50.207Z,57.32
2018-08-28T19:50:22.265Z,57.58
2018-08-28T19:52:51.332Z,57.88
2018-08-28T19:55:20.469Z,57.94
2018-08-28T19:57:49.565Z,58.22
2018-08-28T20:00:18.641Z,58.46
2018-08-28T20:02:47.755Z,58.88
2018-08-28T20:05:16.953Z,59.01
2018-08-28T20:07:46.173Z,59.15
2018-08-28T20:10:15.684Z,59.23
2018-08-28T20:12:44.744Z,59.42
2018-08-28T20:15:13.873Z,59.54
2018-08-28T20:17:43.040Z,59.44
2018-08-28T20:20:12.165Z,59.57
2018-08-28T20:22:41.299Z,59.67
2018-08-28T20:25:10.350Z,59.71
2018-08-28T20:27:39.471Z,59.88
2018-08-28T20:30:08.794Z,60.04
2018-08-28T20:32:37.842Z,60.44
2018-08-28T20:35:07.389Z,60.59
2018-08-28T20:37:36.846Z,60.53
2018-08-28T20:40:06.141Z,60.66
2018-08-28T20:42:35.175Z,60.77
2018-08-28T20:45:04.366Z,60.71
2018-08-28T20:47:33.382Z,60.85
2018-08-28T20:50:02.461Z,61.07
2018-08-28T20:52:31.858Z,61.12
2018-08-28T20:55:00.884Z,61.23
2018-08-28T20:57:29.950Z,61.56
2018-08-28T20:59:59.033Z,61.64
2018-08-28T21:02:28.173Z,61.88
2018-08-28T21:04:57.202Z,62.21
2018-08-28T21:07:26.358Z,62.32
2018-08-28T21:09:55.474Z,62.29
2018-08-28T21:12:24.513Z,62.47
2018-08-28T21:14:53.594Z,62.52
2018-08-28T21:17:22.840Z,62.37
2018-08-28T21:19:52.830Z,62.41
2018-08-28T21:22:21.866Z,62.70
2018-08-28T21:24:50.833Z,62.88
2018-08-28T21:27:19.876Z,63.23
2018-08-28T21:29:49.928Z,63.28
2018-08-28T21:32:20.050Z,63.40
2018-08-28T21:34:49.120Z,63.51
2018-08-28T21:37:18.257Z,63.74
2018-08-28T21:39:47.420Z,63.97
2018-08-28T21:42:17.794Z,63.93
2018-08-28T21:44:46.881Z,63.98
2018-08-28T21:47:16.029Z,63.94
2018-08-28T21:49:45.224Z,63.89
2018-08-28T21:52:15.164Z,63.78
2018-08-28T21:54:44.203Z,63.61
2018-08-28T21:57:13.246Z,63.59
2018-08-28T21:59:42.318Z,63.60
2018-08-28T22:02:11.541Z,63.51
2018-08-28T22:04:40.607Z,63.40
2018-08-28T22:07:14.881Z,63.40
2018-08-28T22:09:44.963Z,63.43
2018-08-28T22:12:14.038Z,63.41
2018-08-28T22:14:43.212Z,63.63
2018-08-28T22:17:22.043Z,63.57
2018-08-28T22:20:08.100Z,63.60
2018-08-28T22:22:53.719Z,63.62
2018-08-28T22:25:37.590Z,63.64
2018-08-28T22:28:28.928Z,63.64
2018-08-28T22:31:15.467Z,63.87
2018-08-28T22:34:02.537Z,63.81
2018-08-28T22:36:46.713Z,63.92
2018-08-28T22:39:15.913Z,63.88
2018-08-28T22:42:01.215Z,63.81
2018-08-28T22:44:44.973Z,63.98
2018-08-28T22:47:14.194Z,64.16
2018-08-28T22:49:59.587Z,64.35
2018-08-28T22:52:45.202Z,64.38
2018-08-28T22:55:32.039Z,64.61
2018-08-28T22:58:05.584Z,64.63
2018-08-28T23:00:34.765Z,64.80
2018-08-28T23:03:16.760Z,65.22
2018-08-28T23:06:00.921Z,65.33
2018-08-28T23:08:45.408Z,65.57
2018-08-28T23:11:14.639Z,65.72
2018-08-28T23:13:43.713Z,65.80
2018-08-28T23:16:13.521Z,65.82
2018-08-28T23:18:42.616Z,65.98
2018-08-28T23:21:11.820Z,66.20
2018-08-28T23:23:40.836Z,66.33
2018-08-28T23:26:09.903Z,66.79
2018-08-28T23:28:38.998Z,66.96
2018-08-28T23:31:08.094Z,67.28
2018-08-28T23:33:37.186Z,67.48
2018-08-28T23:36:06.308Z,67.41
2018-08-28T23:38:35.355Z,67.21
2018-08-28T23:41:04.393Z,67.20
2018-08-28T23:43:33.468Z,67.19
2018-08-28T23:46:02.484Z,67.36
2018-08-28T23:48:31.737Z,67.43
2018-08-28T23:51:00.832Z,67.88
2018-08-28T23:53:29.867Z,67.82
2018-08-28T23:55:58.937Z,67.96
2018-08-28T23:58:27.957Z,68.04
